sensor_id;sensor_type;location;lat;lon;timestamp;temperature;humidity
49503;DHT22;35409;48.776;9.204;2022-11-21T02:08:44;4.30;99.90
49503;DHT22;35409;48.776;9.204;2022-11-21T02:11:31;4.30;99.90
49503;DHT22;35409;48.776;9.204;2022-11-21T02:56:15;3.90;99.90
49503;DHT22;35409;48.776;9.204;2022-11-21T02:58:41;3.80;99.90
49503;DHT22;35409;48.776;9.204;2022-11-21T03:01:06;3.80;99.90
49503;DHT22;35409;48.776;9.204;2022-11-21T03:03:32;3.80;99.90
49503;DHT22;35409;48.776;9.204;2022-11-21T03:05:57;3.80;99.90
49503;DHT22;35409;48.776;9.204;2022-11-21T03:08:23;3.80;99.90
49503;DHT22;35409;48.776;9.204;2022-11-21T03:10:48;3.90;99.90
49503;DHT22;35409;48.776;9.204;2022-11-21T03:13:14;3.90;99.90
49503;DHT22;35409;48.776;9.204;2022-11-21T03:15:40;3.90;99.90
49503;DHT22;35409;48.776;9.204;2022-11-21T03:18:05;3.90;99.90
49503;DHT22;35409;48.776;9.204;2022-11-21T03:20:32;3.80;99.90
49503;DHT22;35409;48.776;9.204;2022-11-21T03:22:59;3.80;99.90
49503;DHT22;35409;48.776;9.204;2022-11-21T03:25:24;3.80;99.90
49503;DHT22;35409;48.776;9.204;2022-11-21T03:27:51;3.80;99.90
49503;DHT22;35409;48.776;9.204;2022-11-21T03:30:23;3.80;99.90
49503;DHT22;35409;48.776;9.204;2022-11-21T03:32:49;3.70;99.90
49503;DHT22;35409;48.776;9.204;2022-11-21T03:35:15;3.70;99.90
49503;DHT22;35409;48.776;9.204;2022-11-21T03:37:41;3.80;99.90
49503;DHT22;35409;48.776;9.204;2022-11-21T03:40:07;3.90;99.90
49503;DHT22;35409;48.776;9.204;2022-11-21T03:42:33;4.00;99.90
49503;DHT22;35409;48.776;9.204;2022-11-21T03:44:58;4.10;99.90
49503;DHT22;35409;48.776;9.204;2022-11-21T03:47:24;4.10;99.90
49503;DHT22;35409;48.776;9.204;2022-11-21T03:49:51;4.10;99.90
49503;DHT22;35409;48.776;9.204;2022-11-21T03:52:17;4.20;99.90
49503;DHT22;35409;48.776;9.204;2022-11-21T03:54:43;4.30;99.90
49503;DHT22;35409;48.776;9.204;2022-11-21T03:57:08;4.30;99.90
49503;DHT22;35409;48.776;9.204;2022-11-21T03:59:34;4.40;99.90
49503;DHT22;35409;48.776;9.204;2022-11-21T04:01:59;4.40;99.90
49503;DHT22;35409;48.776;9.204;2022-11-21T04:04:25;4.60;99.90
49503;DHT22;35409;48.776;9.204;2022-11-21T04:06:50;4.60;99.90
49503;DHT22;35409;48.776;9.204;2022-11-21T04:09:16;4.70;99.90
49503;DHT22;35409;48.776;9.204;2022-11-21T04:11:42;4.60;99.90
49503;DHT22;35409;48.776;9.204;2022-11-21T04:14:07;4.60;99.90
49503;DHT22;35409;48.776;9.204;2022-11-21T04:16:33;4.60;99.90
49503;DHT22;35409;48.776;9.204;2022-11-21T04:18:58;4.60;99.90
49503;DHT22;35409;48.776;9.204;2022-11-21T04:21:24;4.60;99.90
49503;DHT22;35409;48.776;9.204;2022-11-21T04:23:49;4.60;99.90
49503;DHT22;35409;48.776;9.204;2022-11-21T04:26:15;4.60;99.90
49503;DHT22;35409;48.776;9.204;2022-11-21T04:28:40;4.60;99.90
49503;DHT22;35409;48.776;9.204;2022-11-21T04:31:07;4.50;99.90
49503;DHT22;35409;48.776;9.204;2022-11-21T04:33:33;4.50;99.90
49503;DHT22;35409;48.776;9.204;2022-11-21T04:35:59;4.40;99.90
49503;DHT22;35409;48.776;9.204;2022-11-21T04:38:24;4.50;99.90
49503;DHT22;35409;48.776;9.204;2022-11-21T04:40:50;4.40;99.90
49503;DHT22;35409;48.776;9.204;2022-11-21T04:43:16;4.40;99.90
49503;DHT22;35409;48.776;9.204;2022-11-21T04:45:41;4.40;99.90
49503;DHT22;35409;48.776;9.204;2022-11-21T04:48:11;4.40;99.90
49503;DHT22;35409;48.776;9.204;2022-11-21T04:50:37;4.40;99.90
49503;DHT22;35409;48.776;9.204;2022-11-21T04:53:03;4.40;99.90
49503;DHT22;35409;48.776;9.204;2022-11-21T04:55:30;4.50;99.90
49503;DHT22;35409;48.776;9.204;2022-11-21T04:57:56;4.40;99.90
49503;DHT22;35409;48.776;9.204;2022-11-21T05:00:22;4.40;99.90
49503;DHT22;35409;48.776;9.204;2022-11-21T05:02:47;4.40;99.90
49503;DHT22;35409;48.776;9.204;2022-11-21T05:05:13;4.40;99.90
49503;DHT22;35409;48.776;9.204;2022-11-21T05:07:39;4.50;99.90
49503;DHT22;35409;48.776;9.204;2022-11-21T05:10:05;4.50;99.90
49503;DHT22;35409;48.776;9.204;2022-11-21T05:12:31;4.40;99.90
49503;DHT22;35409;48.776;9.204;2022-11-21T05:15:15;4.40;99.90
49503;DHT22;35409;48.776;9.204;2022-11-21T05:17:41;4.30;99.90
49503;DHT22;35409;48.776;9.204;2022-11-21T05:20:07;4.30;99.90
49503;DHT22;35409;48.776;9.204;2022-11-21T05:22:33;4.30;99.90
49503;DHT22;35409;48.776;9.204;2022-11-21T05:24:58;4.30;99.90
49503;DHT22;35409;48.776;9.204;2022-11-21T05:27:24;4.30;99.90
49503;DHT22;35409;48.776;9.204;2022-11-21T05:29:49;4.20;99.90
49503;DHT22;35409;48.776;9.204;2022-11-21T05:32:15;4.20;99.90
49503;DHT22;35409;48.776;9.204;2022-11-21T05:34:40;4.20;99.90
49503;DHT22;35409;48.776;9.204;2022-11-21T05:37:06;4.20;99.90
49503;DHT22;35409;48.776;9.204;2022-11-21T05:39:32;4.20;99.90
49503;DHT22;35409;48.776;9.204;2022-11-21T05:41:57;4.20;99.90
49503;DHT22;35409;48.776;9.204;2022-11-21T05:44:23;4.10;99.90
49503;DHT22;35409;48.776;9.204;2022-11-21T05:46:48;4.10;99.90
49503;DHT22;35409;48.776;9.204;2022-11-21T05:49:14;4.10;99.90
49503;DHT22;35409;48.776;9.204;2022-11-21T05:51:39;4.10;99.90
49503;DHT22;35409;48.776;9.204;2022-11-21T05:54:05;4.20;99.90
49503;DHT22;35409;48.776;9.204;2022-11-21T05:56:31;4.20;99.90
49503;DHT22;35409;48.776;9.204;2022-11-21T05:58:57;4.20;99.90
49503;DHT22;35409;48.776;9.204;2022-11-21T06:01:23;4.20;99.90
49503;DHT22;35409;48.776;9.204;2022-11-21T06:04:08;4.20;99.90
49503;DHT22;35409;48.776;9.204;2022-11-21T06:06:35;4.20;99.90
49503;DHT22;35409;48.776;9.204;2022-11-21T06:09:01;4.30;99.90
49503;DHT22;35409;48.776;9.204;2022-11-21T06:11:27;4.30;99.90
49503;DHT22;35409;48.776;9.204;2022-11-21T06:13:53;4.40;99.90
49503;DHT22;35409;48.776;9.204;2022-11-21T06:16:19;4.50;99.90
49503;DHT22;35409;48.776;9.204;2022-11-21T06:18:47;4.50;99.90
49503;DHT22;35409;48.776;9.204;2022-11-21T06:23:38;4.50;99.90
49503;DHT22;35409;48.776;9.204;2022-11-21T06:26:06;4.50;99.90
49503;DHT22;35409;48.776;9.204;2022-11-21T06:28:37;4.60;99.90
49503;DHT22;35409;48.776;9.204;2022-11-21T06:31:07;4.60;99.90
49503;DHT22;35409;48.776;9.204;2022-11-21T06:33:33;4.60;99.90
49503;DHT22;35409;48.776;9.204;2022-11-21T06:36:06;4.60;99.90
49503;DHT22;35409;48.776;9.204;2022-11-21T06:38:32;4.60;99.90
49503;DHT22;35409;48.776;9.204;2022-11-21T06:41:03;4.70;99.90
49503;DHT22;35409;48.776;9.204;2022-11-21T06:43:29;4.60;99.90
49503;DHT22;35409;48.776;9.204;2022-11-21T06:45:55;4.70;99.90
49503;DHT22;35409;48.776;9.204;2022-11-21T06:48:21;4.60;99.90
49503;DHT22;35409;48.776;9.204;2022-11-21T06:50:47;4.60;99.90
49503;DHT22;35409;48.776;9.204;2022-11-21T06:53:12;4.70;99.90
49503;DHT22;35409;48.776;9.204;2022-11-21T06:55:38;4.70;99.90
49503;DHT22;35409;48.776;9.204;2022-11-21T06:58:03;4.60;99.90
49503;DHT22;35409;48.776;9.204;2022-11-21T07:00:29;4.60;99.90
49503;DHT22;35409;48.776;9.204;2022-11-21T07:03:02;4.60;99.90
49503;DHT22;35409;48.776;9.204;2022-11-21T07:05:28;4.60;99.90
49503;DHT22;35409;48.776;9.204;2022-11-21T07:07:58;4.50;99.90
49503;DHT22;35409;48.776;9.204;2022-11-21T07:10:24;4.40;99.90
49503;DHT22;35409;48.776;9.204;2022-11-21T07:12:49;4.40;99.90
49503;DHT22;35409;48.776;9.204;2022-11-21T07:15:33;4.30;99.90
49503;DHT22;35409;48.776;9.204;2022-11-21T07:18:00;4.20;99.90
49503;DHT22;35409;48.776;9.204;2022-11-21T07:20:26;4.10;99.90
49503;DHT22;35409;48.776;9.204;2022-11-21T07:22:55;4.00;99.90
49503;DHT22;35409;48.776;9.204;2022-11-21T07:25:21;4.00;99.90
49503;DHT22;35409;48.776;9.204;2022-11-21T07:27:47;4.00;99.90
49503;DHT22;35409;48.776;9.204;2022-11-21T07:30:13;4.00;99.90
49503;DHT22;35409;48.776;9.204;2022-11-21T07:32:39;4.00;99.90
49503;DHT22;35409;48.776;9.204;2022-11-21T07:35:05;4.00;99.90
49503;DHT22;35409;48.776;9.204;2022-11-21T07:37:31;3.90;99.90
49503;DHT22;35409;48.776;9.204;2022-11-21T07:39:56;3.90;99.90
49503;DHT22;35409;48.776;9.204;2022-11-21T07:42:22;4.00;99.90
49503;DHT22;35409;48.776;9.204;2022-11-21T07:44:47;3.90;99.90
49503;DHT22;35409;48.776;9.204;2022-11-21T07:47:16;3.90;99.90
49503;DHT22;35409;48.776;9.204;2022-11-21T07:49:41;3.90;99.90
49503;DHT22;35409;48.776;9.204;2022-11-21T07:52:07;4.00;99.90
49503;DHT22;35409;48.776;9.204;2022-11-21T07:54:32;4.00;99.90
49503;DHT22;35409;48.776;9.204;2022-11-21T07:56:58;4.10;99.90
49503;DHT22;35409;48.776;9.204;2022-11-21T07:59:23;4.10;99.90
49503;DHT22;35409;48.776;9.204;2022-11-21T08:01:50;4.10;99.90
49503;DHT22;35409;48.776;9.204;2022-11-21T08:04:16;4.20;99.90
49503;DHT22;35409;48.776;9.204;2022-11-21T08:06:42;4.30;99.90
49503;DHT22;35409;48.776;9.204;2022-11-21T08:09:07;4.40;99.90
49503;DHT22;35409;48.776;9.204;2022-11-21T08:11:35;4.50;99.90
49503;DHT22;35409;48.776;9.204;2022-11-21T08:14:01;4.60;99.90
49503;DHT22;35409;48.776;9.204;2022-11-21T08:16:26;4.70;99.90
49503;DHT22;35409;48.776;9.204;2022-11-21T08:18:53;4.70;99.90
49503;DHT22;35409;48.776;9.204;2022-11-21T08:21:18;4.90;99.90
49503;DHT22;35409;48.776;9.204;2022-11-21T08:23:44;5.00;99.90
49503;DHT22;35409;48.776;9.204;2022-11-21T08:26:09;5.10;99.90
49503;DHT22;35409;48.776;9.204;2022-11-21T08:28:35;5.10;99.90
49503;DHT22;35409;48.776;9.204;2022-11-21T08:31:04;5.10;99.90
49503;DHT22;35409;48.776;9.204;2022-11-21T08:33:31;5.20;99.90
49503;DHT22;35409;48.776;9.204;2022-11-21T08:35:57;5.20;99.90
49503;DHT22;35409;48.776;9.204;2022-11-21T08:38:23;5.20;99.90
49503;DHT22;35409;48.776;9.204;2022-11-21T08:40:48;5.20;99.90
49503;DHT22;35409;48.776;9.204;2022-11-21T08:43:37;5.30;99.90
49503;DHT22;35409;48.776;9.204;2022-11-21T08:46:02;5.30;99.90
49503;DHT22;35409;48.776;9.204;2022-11-21T08:48:28;5.40;99.90
49503;DHT22;35409;48.776;9.204;2022-11-21T08:50:56;5.50;99.90
49503;DHT22;35409;48.776;9.204;2022-11-21T08:53:22;5.50;99.90
49503;DHT22;35409;48.776;9.204;2022-11-21T08:55:47;5.60;99.90
49503;DHT22;35409;48.776;9.204;2022-11-21T08:58:13;5.60;99.90
49503;DHT22;35409;48.776;9.204;2022-11-21T09:00:39;5.70;99.90
49503;DHT22;35409;48.776;9.204;2022-11-21T09:03:05;5.70;99.90
49503;DHT22;35409;48.776;9.204;2022-11-21T09:05:31;5.80;99.90
49503;DHT22;35409;48.776;9.204;2022-11-21T09:07:57;5.90;99.90
49503;DHT22;35409;48.776;9.204;2022-11-21T09:10:24;6.00;99.90
49503;DHT22;35409;48.776;9.204;2022-11-21T09:12:50;6.10;99.90
49503;DHT22;35409;48.776;9.204;2022-11-21T09:15:15;6.20;99.90
49503;DHT22;35409;48.776;9.204;2022-11-21T09:18:00;6.30;99.90
49503;DHT22;35409;48.776;9.204;2022-11-21T09:20:37;6.40;99.90
49503;DHT22;35409;48.776;9.204;2022-11-21T09:23:08;6.50;99.90
49503;DHT22;35409;48.776;9.204;2022-11-21T09:25:34;6.60;99.90
49503;DHT22;35409;48.776;9.204;2022-11-21T09:28:04;6.70;99.90
49503;DHT22;35409;48.776;9.204;2022-11-21T09:30:30;6.90;99.90
49503;DHT22;35409;48.776;9.204;2022-11-21T09:33:04;7.00;99.90
49503;DHT22;35409;48.776;9.204;2022-11-21T09:35:30;7.00;99.90
49503;DHT22;35409;48.776;9.204;2022-11-21T09:37:55;7.20;99.90
49503;DHT22;35409;48.776;9.204;2022-11-21T09:40:22;7.30;99.90
49503;DHT22;35409;48.776;9.204;2022-11-21T09:45:47;7.60;99.90
49503;DHT22;35409;48.776;9.204;2022-11-21T09:48:33;7.70;99.90
49503;DHT22;35409;48.776;9.204;2022-11-21T09:51:06;7.80;99.90
49503;DHT22;35409;48.776;9.204;2022-11-21T09:53:38;7.90;99.90
49503;DHT22;35409;48.776;9.204;2022-11-21T09:56:11;8.00;99.90
49503;DHT22;35409;48.776;9.204;2022-11-21T10:01:42;8.10;99.90
49503;DHT22;35409;48.776;9.204;2022-11-21T10:04:07;8.00;99.90
49503;DHT22;35409;48.776;9.204;2022-11-21T10:06:45;8.10;99.90
49503;DHT22;35409;48.776;9.204;2022-11-21T10:12:03;8.10;99.90
49503;DHT22;35409;48.776;9.204;2022-11-21T10:23:43;8.40;99.90
49503;DHT22;35409;48.776;9.204;2022-11-21T10:57:13;9.00;99.90
49503;DHT22;35409;48.776;9.204;2022-11-21T10:59:40;9.10;99.90
49503;DHT22;35409;48.776;9.204;2022-11-21T11:04:38;9.40;99.90
49503;DHT22;35409;48.776;9.204;2022-11-21T11:09:45;9.80;99.90
49503;DHT22;35409;48.776;9.204;2022-11-21T11:12:27;9.90;99.90
49503;DHT22;35409;48.776;9.204;2022-11-21T11:15:17;10.00;99.90
49503;DHT22;35409;48.776;9.204;2022-11-21T11:17:50;10.10;99.90
49503;DHT22;35409;48.776;9.204;2022-11-21T11:22:59;10.30;99.90
49503;DHT22;35409;48.776;9.204;2022-11-21T11:25:25;10.30;99.90
49503;DHT22;35409;48.776;9.204;2022-11-21T11:27:51;10.40;99.90
49503;DHT22;35409;48.776;9.204;2022-11-21T11:30:18;10.40;99.90
49503;DHT22;35409;48.776;9.204;2022-11-21T11:32:44;10.40;99.90
49503;DHT22;35409;48.776;9.204;2022-11-21T11:37:42;10.20;99.90
49503;DHT22;35409;48.776;9.204;2022-11-21T11:40:31;10.10;99.90
49503;DHT22;35409;48.776;9.204;2022-11-21T11:46:17;10.10;99.90
49503;DHT22;35409;48.776;9.204;2022-11-21T11:49:11;10.20;99.90
49503;DHT22;35409;48.776;9.204;2022-11-21T11:51:46;10.20;99.90
49503;DHT22;35409;48.776;9.204;2022-11-21T11:54:17;10.20;99.90
49503;DHT22;35409;48.776;9.204;2022-11-21T11:56:44;10.10;99.90
49503;DHT22;35409;48.776;9.204;2022-11-21T11:59:13;10.10;99.90
49503;DHT22;35409;48.776;9.204;2022-11-21T12:04:11;9.90;99.90
49503;DHT22;35409;48.776;9.204;2022-11-21T12:06:44;10.00;99.90
49503;DHT22;35409;48.776;9.204;2022-11-21T12:12:32;10.10;99.90
49503;DHT22;35409;48.776;9.204;2022-11-21T12:15:24;10.10;99.90
49503;DHT22;35409;48.776;9.204;2022-11-21T12:23:35;10.30;99.90
49503;DHT22;35409;48.776;9.204;2022-11-21T12:26:14;10.40;99.90
49503;DHT22;35409;48.776;9.204;2022-11-21T12:32:12;10.30;99.90
49503;DHT22;35409;48.776;9.204;2022-11-21T12:34:53;10.20;99.90
49503;DHT22;35409;48.776;9.204;2022-11-21T12:42:39;10.00;99.90
49503;DHT22;35409;48.776;9.204;2022-11-21T12:45:34;10.00;99.90
49503;DHT22;35409;48.776;9.204;2022-11-21T12:54:05;10.40;99.90
49503;DHT22;35409;48.776;9.204;2022-11-21T13:00:38;10.70;99.90
49503;DHT22;35409;48.776;9.204;2022-11-21T13:05:22;10.60;99.90
49503;DHT22;35409;48.776;9.204;2022-11-21T13:07:53;10.60;99.90
49503;DHT22;35409;48.776;9.204;2022-11-21T13:10:19;10.60;99.90
49503;DHT22;35409;48.776;9.204;2022-11-21T13:12:47;10.60;99.90
49503;DHT22;35409;48.776;9.204;2022-11-21T13:15:23;10.60;99.90
49503;DHT22;35409;48.776;9.204;2022-11-21T13:17:58;10.70;99.90
49503;DHT22;35409;48.776;9.204;2022-11-21T13:22:56;10.70;99.90
49503;DHT22;35409;48.776;9.204;2022-11-21T13:30:49;10.70;99.90
49503;DHT22;35409;48.776;9.204;2022-11-21T13:36:06;10.70;99.90
49503;DHT22;35409;48.776;9.204;2022-11-21T13:49:47;10.70;99.90
49503;DHT22;35409;48.776;9.204;2022-11-21T13:52:21;10.60;99.90
49503;DHT22;35409;48.776;9.204;2022-11-21T13:57:48;10.40;99.90
49503;DHT22;35409;48.776;9.204;2022-11-21T14:03:09;10.10;99.90
49503;DHT22;35409;48.776;9.204;2022-11-21T14:08:25;10.00;99.90
49503;DHT22;35409;48.776;9.204;2022-11-21T14:10:53;9.80;99.90
49503;DHT22;35409;48.776;9.204;2022-11-21T14:13:33;9.70;99.90
49503;DHT22;35409;48.776;9.204;2022-11-21T14:18:45;9.70;99.90
49503;DHT22;35409;48.776;9.204;2022-11-21T14:21:24;9.70;99.90
49503;DHT22;35409;48.776;9.204;2022-11-21T14:23:56;9.70;99.90
49503;DHT22;35409;48.776;9.204;2022-11-21T14:26:22;9.60;99.90
49503;DHT22;35409;48.776;9.204;2022-11-21T14:28:50;9.50;99.90
49503;DHT22;35409;48.776;9.204;2022-11-21T14:31:16;9.50;99.90
49503;DHT22;35409;48.776;9.204;2022-11-21T14:33:43;9.40;99.90
49503;DHT22;35409;48.776;9.204;2022-11-21T14:36:20;9.40;99.90
49503;DHT22;35409;48.776;9.204;2022-11-21T14:38:48;9.30;99.90
49503;DHT22;35409;48.776;9.204;2022-11-21T14:46:27;9.10;99.90
49503;DHT22;35409;48.776;9.204;2022-11-21T14:48:53;9.00;99.90
49503;DHT22;35409;48.776;9.204;2022-11-21T14:51:23;8.90;99.90
49503;DHT22;35409;48.776;9.204;2022-11-21T14:53:50;8.80;99.90
49503;DHT22;35409;48.776;9.204;2022-11-21T14:56:25;8.60;99.90
49503;DHT22;35409;48.776;9.204;2022-11-21T14:58:54;8.60;99.90
49503;DHT22;35409;48.776;9.204;2022-11-21T15:01:22;8.50;99.90
49503;DHT22;35409;48.776;9.204;2022-11-21T15:06:21;8.30;99.90
49503;DHT22;35409;48.776;9.204;2022-11-21T15:36:28;8.60;99.90
49503;DHT22;35409;48.776;9.204;2022-11-21T15:39:03;7.30;99.90
49503;DHT22;35409;48.776;9.204;2022-11-21T15:41:31;7.20;99.90
49503;DHT22;35409;48.776;9.204;2022-11-21T15:46:28;6.90;99.90
